Time;durP1;ratioP1;P1;durP2;ratioP2;P2;SDS_P1;SDS_P2;PMS_P1;PMS_P2;Temp;Humidity;BMP_temperature;BMP_pressure;BME280_temperature;BME280_humidity;BME280_pressure;Samples;Min_cycle;Max_cycle;Signal;HPM_P1;HPM_P2
2024/03/22 05:00:58;;;;;;;3.30;3.03;;;7.00;97.30;;;;;;5838683;23;20958;-91
2024/03/22 05:03:24;;;;;;;3.83;2.03;;;7.10;97.30;;;;;;4996687;28;20456;-93
2024/03/22 05:05:50;;;;;;;2.50;1.87;;;7.10;97.30;;;;;;4984378;28;21054;-87
2024/03/22 05:08:17;;;;;;;1.87;1.77;;;7.10;97.30;;;;;;4974865;28;20186;-87
2024/03/22 05:10:44;;;;;;;2.33;2.13;;;7.10;97.30;;;;;;4971098;28;20448;-88
2024/03/22 05:13:10;;;;;;;4.57;3.00;;;7.10;97.30;;;;;;4960364;28;20437;-87
2024/03/22 05:15:35;;;;;;;6.87;3.90;;;7.10;97.30;;;;;;4950484;28;20799;-89
2024/03/22 05:18:01;;;;;;;3.33;1.67;;;7.10;97.30;;;;;;4964970;28;20178;-87
2024/03/22 05:20:26;;;;;;;1.83;1.73;;;7.10;97.30;;;;;;4961358;28;20190;-88
2024/03/22 05:22:52;;;;;;;1.93;1.83;;;7.20;97.30;;;;;;4978118;28;20225;-88
2024/03/22 05:25:18;;;;;;;2.43;2.30;;;7.20;97.30;;;;;;4962870;28;20273;-89
2024/03/22 05:27:45;;;;;;;4.57;1.63;;;7.20;97.30;;;;;;4961078;28;20479;-89
2024/03/22 05:30:11;;;;;;;1.47;1.27;;;7.20;97.30;;;;;;4970138;28;20186;-90
2024/03/22 05:32:38;;;;;;;2.43;2.23;;;7.30;97.30;;;;;;4978674;28;20461;-88
2024/03/22 05:35:06;;;;;;;2.60;1.83;;;7.30;97.30;;;;;;4987763;28;20424;-89
2024/03/22 05:37:33;;;;;;;1.93;1.20;;;7.30;97.30;;;;;;4961519;28;20487;-88
2024/03/22 05:39:58;;;;;;;1.73;1.50;;;7.40;97.30;;;;;;4967455;28;20429;-89
2024/03/22 05:42:24;;;;;;;2.53;2.33;;;7.40;97.30;;;;;;4970407;28;20471;-87
2024/03/22 05:44:49;;;;;;;4.63;2.30;;;7.40;97.30;;;;;;4971259;28;20536;-90
2024/03/22 05:47:15;;;;;;;2.97;1.30;;;7.40;97.30;;;;;;4963241;28;20495;-89
2024/03/22 05:49:40;;;;;;;11.63;3.73;;;7.50;97.30;;;;;;4962965;28;20192;-87
2024/03/22 05:52:06;;;;;;;8.90;3.20;;;7.50;97.30;;;;;;4960339;28;20290;-87
2024/03/22 05:54:32;;;;;;;2.83;2.63;;;7.50;97.30;;;;;;4956846;28;20274;-87
2024/03/22 05:56:57;;;;;;;2.80;2.60;;;7.50;97.30;;;;;;4963183;28;20245;-89
2024/03/22 05:59:23;;;;;;;2.53;2.33;;;7.60;97.30;;;;;;4980834;28;20495;-88
2024/03/22 06:01:48;;;;;;;2.83;2.13;;;7.60;97.30;;;;;;4950871;28;20230;-89
2024/03/22 06:04:16;;;;;;;1.67;1.57;;;7.60;97.30;;;;;;4957242;28;20657;-89
2024/03/22 06:06:41;;;;;;;4.13;2.70;;;7.70;97.30;;;;;;4959620;28;20186;-88
2024/03/22 06:09:11;;;;;;;2.87;2.03;;;7.70;97.30;;;;;;4958591;28;20423;-85
2024/03/22 06:11:37;;;;;;;2.77;2.50;;;7.80;97.30;;;;;;4964187;28;20202;-88
2024/03/22 06:14:02;;;;;;;2.83;2.50;;;7.80;97.30;;;;;;4974457;28;20442;-93
2024/03/22 06:16:28;;;;;;;2.73;2.53;;;7.90;97.30;;;;;;4978882;28;20209;-92
2024/03/22 06:18:53;;;;;;;1.90;1.80;;;7.90;97.30;;;;;;4987541;28;20216;-92
2024/03/22 06:21:24;;;;;;;1.50;1.40;;;8.00;97.30;;;;;;4983223;28;20207;-92
2024/03/22 06:23:50;;;;;;;7.23;3.50;;;8.00;97.30;;;;;;4973603;28;20176;-94
2024/03/22 06:26:16;;;;;;;1.50;1.40;;;8.10;97.30;;;;;;4972783;28;20517;-89
2024/03/22 06:28:41;;;;;;;1.83;1.73;;;8.10;97.30;;;;;;4970338;28;20963;-89
2024/03/22 06:31:07;;;;;;;4.27;1.97;;;8.20;97.30;;;;;;4964479;28;20294;-89
2024/03/22 06:33:33;;;;;;;1.17;1.07;;;8.30;97.30;;;;;;4975055;28;20209;-88
2024/03/22 06:35:59;;;;;;;3.23;2.50;;;8.30;97.30;;;;;;4979625;23;20864;-64
2024/03/22 06:38:25;;;;;;;4.37;2.07;;;8.40;97.30;;;;;;4972917;28;20266;-64
2024/03/22 06:40:50;;;;;;;1.77;1.67;;;8.50;97.30;;;;;;4971440;28;20569;-64
2024/03/22 06:43:16;;;;;;;1.33;1.23;;;8.60;97.30;;;;;;4964203;28;20190;-64
2024/03/22 06:45:41;;;;;;;2.57;2.23;;;8.60;97.30;;;;;;4962457;28;20234;-66
2024/03/22 06:48:07;;;;;;;4.63;1.87;;;8.70;97.30;;;;;;4954726;28;20194;-65
2024/03/22 06:50:32;;;;;;;2.77;2.20;;;8.80;97.30;;;;;;4966179;28;20757;-64
2024/03/22 06:52:58;;;;;;;3.83;2.40;;;8.90;97.30;;;;;;4963413;28;20716;-64
2024/03/22 06:55:23;;;;;;;6.00;2.67;;;8.90;97.30;;;;;;4961677;28;20233;-67
2024/03/22 06:57:49;;;;;;;2.83;2.20;;;9.00;97.30;;;;;;4967773;28;20187;-67
2024/03/22 07:00:16;;;;;;;3.90;2.50;;;9.10;97.30;;;;;;4963836;28;20197;-67
2024/03/22 07:02:42;;;;;;;2.80;2.30;;;9.10;97.30;;;;;;4963725;28;20528;-66
2024/03/22 07:05:08;;;;;;;3.53;3.33;;;9.20;97.30;;;;;;4959128;28;20439;-64
2024/03/22 07:07:37;;;;;;;1.83;1.73;;;9.20;97.30;;;;;;4960720;28;20421;-65
2024/03/22 07:10:05;;;;;;;3.57;2.13;;;9.30;97.30;;;;;;4966909;28;20431;-67
2024/03/22 07:12:31;;;;;;;7.63;2.43;;;9.30;97.30;;;;;;4960725;28;20822;-66
2024/03/22 07:14:57;;;;;;;1.60;1.50;;;9.40;97.30;;;;;;4965229;28;20436;-65
2024/03/22 07:17:24;;;;;;;2.90;1.77;;;9.50;97.30;;;;;;4957341;28;20451;-65
2024/03/22 07:19:53;;;;;;;19.43;3.50;;;9.50;97.30;;;;;;4954161;28;20441;-64
2024/03/22 07:22:20;;;;;;;2.30;2.17;;;9.60;97.30;;;;;;4963609;28;20597;-65
2024/03/22 07:24:45;;;;;;;3.67;3.47;;;9.60;97.30;;;;;;4956443;28;20430;-65
2024/03/22 07:27:11;;;;;;;2.37;1.50;;;9.60;97.30;;;;;;4965671;28;20429;-64
2024/03/22 07:29:37;;;;;;;7.50;3.73;;;9.70;97.30;;;;;;4958528;28;20190;-65
2024/03/22 07:32:03;;;;;;;2.97;2.77;;;9.70;97.30;;;;;;4958288;28;20226;-65
2024/03/22 07:34:29;;;;;;;1.87;1.77;;;9.80;97.30;;;;;;4970390;28;20449;-66
2024/03/22 07:36:55;;;;;;;2.40;1.60;;;9.80;97.30;;;;;;4980242;28;20189;-66
2024/03/22 07:39:20;;;;;;;2.30;2.03;;;9.80;97.30;;;;;;4964919;28;20802;-66
2024/03/22 07:41:46;;;;;;;5.83;2.43;;;9.90;97.30;;;;;;4968091;28;20214;-66
2024/03/22 07:44:11;;;;;;;3.03;2.83;;;9.90;97.30;;;;;;4984002;28;20607;-66
2024/03/22 07:46:36;;;;;;;4.30;4.03;;;9.90;97.30;;;;;;4991579;28;20559;-65
2024/03/22 07:49:04;;;;;;;6.70;3.33;;;10.00;97.30;;;;;;4962886;28;20218;-66
2024/03/22 07:51:32;;;;;;;3.73;2.40;;;10.00;97.30;;;;;;4970115;28;20202;-66
2024/03/22 07:53:58;;;;;;;19.33;3.57;;;10.10;97.30;;;;;;4967197;28;20925;-66
2024/03/22 07:56:23;;;;;;;5.20;2.63;;;10.10;97.30;;;;;;4969750;28;20452;-66
2024/03/22 07:58:48;;;;;;;5.43;2.33;;;10.20;97.30;;;;;;4981357;28;20216;-66
2024/03/22 08:01:15;;;;;;;1.97;1.60;;;10.30;97.30;;;;;;4986348;28;20264;-65
2024/03/22 08:03:41;;;;;;;2.60;2.40;;;10.30;97.30;;;;;;4982432;28;20260;-66
2024/03/22 08:06:06;;;;;;;5.53;3.20;;;10.40;97.30;;;;;;4985270;28;20505;-66
2024/03/22 08:08:31;;;;;;;6.10;2.73;;;10.50;97.30;;;;;;4988347;28;20727;-66
2024/03/22 08:10:57;;;;;;;6.80;3.47;;;10.60;97.30;;;;;;4973459;28;20201;-65
2024/03/22 08:13:22;;;;;;;2.20;1.67;;;10.60;97.30;;;;;;4976720;28;20185;-67
2024/03/22 08:15:48;;;;;;;4.33;4.03;;;10.50;97.30;;;;;;4990025;28;20568;-65
2024/03/22 08:18:13;;;;;;;3.97;3.57;;;10.60;97.30;;;;;;4983031;28;20261;-64
2024/03/22 08:20:39;;;;;;;4.07;3.53;;;10.70;97.30;;;;;;4957404;28;20240;-64
2024/03/22 08:23:07;;;;;;;4.20;2.73;;;10.80;97.30;;;;;;4972303;28;20210;-62
2024/03/22 08:25:33;;;;;;;4.90;2.90;;;10.80;97.30;;;;;;4980351;28;20182;-63
2024/03/22 08:27:59;;;;;;;5.27;2.43;;;10.90;97.30;;;;;;4960123;28;20508;-64
2024/03/22 08:30:25;;;;;;;8.30;3.60;;;10.90;97.30;;;;;;4980503;28;20213;-64
2024/03/22 08:32:51;;;;;;;3.57;3.37;;;11.00;97.30;;;;;;4973038;28;20418;-64
2024/03/22 08:35:17;;;;;;;7.97;3.50;;;11.10;97.30;;;;;;4972058;28;20233;-64
2024/03/22 08:37:42;;;;;;;8.27;5.20;;;11.30;97.30;;;;;;4978668;28;20800;-64
2024/03/22 08:40:09;;;;;;;13.53;3.57;;;11.40;97.30;;;;;;4953599;28;20411;-62
2024/03/22 08:42:35;;;;;;;4.37;3.97;;;11.60;97.30;;;;;;4987559;28;20217;-64
2024/03/22 08:45:01;;;;;;;5.70;3.50;;;11.80;97.30;;;;;;4961623;28;20422;-67
2024/03/22 08:47:26;;;;;;;7.00;2.83;;;11.90;97.30;;;;;;4974093;28;20426;-62
2024/03/22 08:49:52;;;;;;;10.40;3.60;;;11.80;97.30;;;;;;4954416;28;20209;-64
2024/03/22 08:52:18;;;;;;;3.73;3.53;;;11.80;97.30;;;;;;4971357;28;20702;-64
2024/03/22 08:54:43;;;;;;;9.80;2.33;;;11.90;97.30;;;;;;4979310;28;20236;-64
2024/03/22 08:57:09;;;;;;;10.63;3.60;;;12.00;97.30;;;;;;4970094;28;20186;-65
2024/03/22 08:59:35;;;;;;;2.60;2.40;;;12.10;97.30;;;;;;4988344;28;20582;-67
2024/03/22 09:02:00;;;;;;;9.70;4.20;;;12.10;97.30;;;;;;4966723;28;20318;-63
2024/03/22 09:04:26;;;;;;;13.60;6.50;;;12.20;97.30;;;;;;4965762;28;20513;-65
2024/03/22 09:06:51;;;;;;;14.10;6.60;;;12.20;97.30;;;;;;4986422;28;20178;-65
2024/03/22 09:09:17;;;;;;;4.80;4.50;;;12.20;97.30;;;;;;4989371;28;20261;-64
2024/03/22 09:11:43;;;;;;;5.03;3.33;;;12.30;97.30;;;;;;4977280;28;20281;-64
2024/03/22 09:14:10;;;;;;;3.50;2.97;;;12.30;97.30;;;;;;4974461;28;20182;-65
2024/03/22 09:16:35;;;;;;;10.33;6.50;;;12.30;97.30;;;;;;4965017;28;20429;-64
2024/03/22 09:19:01;;;;;;;4.73;4.50;;;12.30;97.30;;;;;;4979165;28;20967;-63
2024/03/22 09:21:26;;;;;;;3.73;3.60;;;12.40;97.30;;;;;;4959010;28;20217;-64
2024/03/22 09:23:52;;;;;;;3.03;2.83;;;12.60;97.30;;;;;;4981123;28;20214;-64
2024/03/22 09:26:17;;;;;;;5.57;3.37;;;12.70;97.30;;;;;;4963569;28;20197;-63
2024/03/22 09:28:46;;;;;;;7.77;5.50;;;12.80;97.30;;;;;;4989584;28;20653;-64
2024/03/22 09:31:11;;;;;;;5.60;2.93;;;12.90;97.30;;;;;;4973376;28;20683;-64
2024/03/22 09:33:37;;;;;;;13.70;3.67;;;13.00;97.30;;;;;;4981450;28;21036;-64
2024/03/22 09:36:03;;;;;;;7.17;4.00;;;13.20;97.30;;;;;;4973443;28;20223;-67
2024/03/22 09:38:28;;;;;;;5.00;3.87;;;13.30;97.30;;;;;;4989186;28;20181;-63
2024/03/22 09:40:55;;;;;;;5.90;3.17;;;13.40;97.30;;;;;;4980260;28;20206;-64
2024/03/22 09:43:21;;;;;;;8.93;2.87;;;13.50;97.30;;;;;;4963044;28;20193;-66
2024/03/22 09:45:49;;;;;;;5.30;2.40;;;13.40;97.00;;;;;;4955417;28;20981;-65
2024/03/22 09:48:17;;;;;;;12.57;5.00;;;13.40;96.90;;;;;;4972923;28;20430;-65
2024/03/22 09:50:43;;;;;;;11.17;4.40;;;13.30;97.30;;;;;;4958196;28;20838;-67
2024/03/22 09:53:10;;;;;;;4.80;2.60;;;13.30;97.30;;;;;;4968295;28;20531;-67
2024/03/22 09:55:36;;;;;;;6.33;3.73;;;13.40;97.30;;;;;;4988725;28;20417;-64
2024/03/22 09:58:02;;;;;;;6.70;3.03;;;13.30;97.30;;;;;;4980431;28;20418;-65
2024/03/22 10:00:28;;;;;;;9.40;2.60;;;13.40;97.30;;;;;;4955104;28;20813;-65
2024/03/22 10:02:54;;;;;;;4.97;4.03;;;13.40;96.90;;;;;;4970777;28;20686;-64
2024/03/22 10:05:19;;;;;;;11.60;4.03;;;13.40;97.10;;;;;;4954714;28;20259;-67
2024/03/22 10:07:45;;;;;;;5.77;2.50;;;13.50;96.80;;;;;;4969998;28;20938;-64
2024/03/22 10:10:12;;;;;;;6.60;3.87;;;13.50;96.60;;;;;;4962365;28;20179;-65
2024/03/22 10:12:38;;;;;;;4.67;3.40;;;13.70;97.00;;;;;;4979716;28;20182;-65
2024/03/22 10:15:05;;;;;;;7.47;2.90;;;13.70;96.70;;;;;;4954097;28;20434;-67
2024/03/22 10:17:31;;;;;;;7.50;3.27;;;13.80;96.90;;;;;;4962847;28;20812;-65
2024/03/22 10:19:57;;;;;;;5.53;3.47;;;13.90;96.40;;;;;;4961367;28;20685;-66
2024/03/22 10:22:24;;;;;;;3.50;1.60;;;14.00;95.80;;;;;;4971203;28;20253;-65
2024/03/22 10:24:50;;;;;;;11.53;4.13;;;13.90;96.30;;;;;;4973902;28;20268;-65
2024/03/22 10:27:16;;;;;;;2.80;2.60;;;14.00;96.30;;;;;;4975019;28;20505;-65
2024/03/22 10:29:42;;;;;;;10.83;4.67;;;14.10;96.00;;;;;;4978298;28;20412;-68
2024/03/22 10:32:09;;;;;;;11.73;3.80;;;14.20;96.00;;;;;;5003128;28;20270;-66
2024/03/22 10:34:35;;;;;;;2.13;1.93;;;14.00;95.30;;;;;;4991493;28;20605;-65
2024/03/22 10:37:01;;;;;;;2.80;2.53;;;14.00;95.70;;;;;;4982110;28;20990;-65
2024/03/22 10:39:28;;;;;;;3.73;2.53;;;14.00;95.90;;;;;;4994553;28;20669;-65
2024/03/22 10:41:54;;;;;;;10.40;6.00;;;14.00;95.70;;;;;;5005643;28;20217;-66
2024/03/22 10:44:19;;;;;;;4.80;4.23;;;14.00;95.90;;;;;;4980300;28;20508;-64
2024/03/22 10:46:48;;;;;;;3.30;2.20;;;14.00;96.20;;;;;;5000137;28;20189;-65
2024/03/22 10:49:18;;;;;;;5.23;2.70;;;14.00;95.70;;;;;;5008921;28;20421;-64
2024/03/22 10:51:48;;;;;;;12.70;4.90;;;14.00;96.00;;;;;;4992490;28;20443;-65
2024/03/22 10:54:20;;;;;;;3.73;2.47;;;14.20;96.10;;;;;;5002366;28;20444;-64
2024/03/22 10:56:47;;;;;;;8.13;1.83;;;14.40;95.60;;;;;;4990036;28;20454;-65
2024/03/22 10:59:20;;;;;;;5.10;3.60;;;14.50;95.30;;;;;;4985018;28;20444;-66
2024/03/22 11:01:46;;;;;;;3.93;3.20;;;14.60;94.80;;;;;;4991028;28;20512;-65
2024/03/22 11:04:15;;;;;;;6.03;2.93;;;14.70;94.40;;;;;;4995107;28;20421;-64
2024/03/22 11:06:42;;;;;;;2.13;1.70;;;14.80;95.20;;;;;;4980526;28;20818;-66
2024/03/22 11:09:08;;;;;;;2.47;2.27;;;14.80;94.50;;;;;;4977644;28;20433;-66
2024/03/22 11:11:37;;;;;;;7.23;4.00;;;14.80;94.30;;;;;;4986623;28;20452;-66
2024/03/22 11:14:03;;;;;;;4.40;2.13;;;14.80;94.10;;;;;;4971348;28;20528;-67
2024/03/22 11:16:30;;;;;;;6.10;2.53;;;14.80;94.00;;;;;;4989293;28;20420;-67
2024/03/22 11:18:55;;;;;;;8.33;2.53;;;14.70;94.20;;;;;;4982237;28;20440;-68
2024/03/22 11:21:21;;;;;;;2.50;2.33;;;14.80;94.10;;;;;;4992436;28;20516;-68
2024/03/22 11:23:47;;;;;;;6.10;2.93;;;15.00;94.20;;;;;;4979006;28;20673;-67
2024/03/22 11:26:12;;;;;;;3.97;1.83;;;15.10;94.10;;;;;;4971339;28;20634;-68
2024/03/22 11:28:39;;;;;;;3.30;2.10;;;15.20;94.20;;;;;;4988124;28;20178;-67
2024/03/22 11:31:05;;;;;;;6.47;3.57;;;15.20;93.40;;;;;;4978684;28;20198;-67
2024/03/22 11:33:31;;;;;;;4.07;3.43;;;15.20;93.90;;;;;;4995366;28;20803;-67
2024/03/22 11:36:01;;;;;;;7.23;3.67;;;15.20;94.30;;;;;;4971187;28;20232;-67
2024/03/22 11:38:27;;;;;;;8.50;4.03;;;15.10;94.30;;;;;;4975240;28;20527;-67
2024/03/22 11:40:55;;;;;;;7.40;3.70;;;15.20;94.50;;;;;;5003610;28;20548;-67
2024/03/22 11:43:21;;;;;;;4.80;3.17;;;15.20;94.40;;;;;;4985199;28;20494;-68
2024/03/22 11:45:46;;;;;;;16.67;6.67;;;15.30;94.30;;;;;;4987455;28;20513;-66
2024/03/22 11:48:13;;;;;;;6.80;3.80;;;15.50;94.20;;;;;;4991076;28;20412;-67
2024/03/22 11:50:38;;;;;;;7.43;4.20;;;15.60;94.10;;;;;;4994832;28;20292;-67
2024/03/22 11:53:08;;;;;;;4.40;4.13;;;15.70;93.70;;;;;;4970898;28;20524;-67
2024/03/22 11:55:36;;;;;;;6.10;2.40;;;15.50;93.40;;;;;;4991839;28;20185;-67
2024/03/22 11:58:01;;;;;;;2.80;2.50;;;15.70;94.30;;;;;;4981004;28;20431;-67
2024/03/22 12:00:28;;;;;;;7.40;3.60;;;15.70;93.10;;;;;;5006758;28;20436;-67
2024/03/22 12:02:53;;;;;;;8.27;4.67;;;15.70;93.40;;;;;;5005622;28;20231;-66
2024/03/22 12:05:20;;;;;;;6.67;5.73;;;15.80;93.10;;;;;;4987356;28;20944;-71
2024/03/22 12:07:46;;;;;;;3.30;2.40;;;15.80;92.80;;;;;;4978496;28;20186;-67
2024/03/22 12:10:11;;;;;;;6.00;4.23;;;15.80;93.20;;;;;;4992124;28;20421;-68
2024/03/22 12:12:37;;;;;;;5.17;2.80;;;15.80;93.10;;;;;;4968737;28;20212;-67
2024/03/22 12:15:03;;;;;;;4.40;2.23;;;15.90;93.00;;;;;;4975839;28;20189;-66
2024/03/22 12:17:29;;;;;;;3.93;2.50;;;16.00;92.70;;;;;;4993521;28;20185;-69
2024/03/22 12:19:55;;;;;;;7.63;3.47;;;16.00;92.50;;;;;;4996816;28;20420;-68
2024/03/22 12:22:22;;;;;;;5.03;3.93;;;15.90;92.40;;;;;;4991274;28;20217;-67
2024/03/22 12:24:48;;;;;;;17.67;5.27;;;15.90;92.70;;;;;;4971402;28;20440;-67
2024/03/22 12:27:13;;;;;;;2.63;2.30;;;15.90;93.20;;;;;;4982096;28;20503;-68
2024/03/22 12:29:39;;;;;;;7.33;3.50;;;15.90;93.40;;;;;;4998439;28;20178;-66
2024/03/22 12:32:05;;;;;;;4.30;3.00;;;16.00;93.90;;;;;;4987369;28;20720;-66
2024/03/22 12:34:32;;;;;;;3.27;3.07;;;16.00;93.30;;;;;;4992288;28;20695;-67
2024/03/22 12:36:58;;;;;;;11.63;4.17;;;16.00;93.60;;;;;;4997768;28;20458;-68
2024/03/22 12:39:24;;;;;;;5.00;2.67;;;16.00;93.10;;;;;;4987577;28;20428;-67
2024/03/22 12:41:49;;;;;;;5.43;3.13;;;16.10;93.80;;;;;;5004086;28;20523;-67
2024/03/22 12:44:15;;;;;;;9.10;4.50;;;16.10;93.20;;;;;;4979266;28;20173;-67
2024/03/22 12:46:44;;;;;;;8.20;3.80;;;16.20;93.50;;;;;;5003856;28;20181;-67
2024/03/22 12:49:10;;;;;;;5.37;3.43;;;16.30;93.50;;;;;;4985949;28;20441;-71
2024/03/22 12:51:36;;;;;;;4.60;3.60;;;16.30;92.40;;;;;;4990874;28;20441;-68
2024/03/22 12:54:02;;;;;;;4.33;3.60;;;16.50;92.80;;;;;;4987999;28;21044;-65
2024/03/22 12:56:28;;;;;;;8.17;3.10;;;16.50;92.20;;;;;;4996153;28;20500;-66
2024/03/22 12:58:54;;;;;;;5.10;4.53;;;16.70;92.40;;;;;;4999074;28;20444;-66
2024/03/22 13:01:20;;;;;;;6.70;4.83;;;16.70;92.20;;;;;;4993433;28;20952;-65
2024/03/22 13:03:46;;;;;;;6.50;3.13;;;16.70;92.20;;;;;;4995862;28;20522;-66
2024/03/22 13:06:12;;;;;;;6.30;3.27;;;16.90;92.20;;;;;;4999215;28;20161;-66
2024/03/22 13:08:38;;;;;;;16.53;4.77;;;17.00;91.30;;;;;;4971544;28;20474;-66
2024/03/22 13:11:04;;;;;;;6.63;3.67;;;17.20;91.30;;;;;;4998911;28;20668;-64
2024/03/22 13:13:29;;;;;;;6.20;3.83;;;17.10;90.40;;;;;;5004847;28;20452;-66
2024/03/22 13:15:58;;;;;;;7.40;4.00;;;17.20;90.80;;;;;;5004016;28;20472;-69
2024/03/22 13:18:24;;;;;;;13.13;4.13;;;17.40;90.30;;;;;;4980717;28;20194;-68
2024/03/22 13:20:49;;;;;;;11.17;4.93;;;17.30;89.90;;;;;;4983507;28;20441;-66
2024/03/22 13:23:15;;;;;;;9.57;3.93;;;17.20;89.90;;;;;;4975477;28;20205;-65
2024/03/22 13:25:40;;;;;;;7.60;4.17;;;17.30;90.70;;;;;;4977752;28;20683;-66
2024/03/22 13:28:06;;;;;;;5.20;4.10;;;17.30;89.30;;;;;;4997646;28;20182;-65
2024/03/22 13:30:32;;;;;;;10.43;3.60;;;17.30;89.80;;;;;;4973232;28;20204;-67
2024/03/22 13:32:58;;;;;;;5.50;3.43;;;17.40;89.20;;;;;;4989714;28;20697;-66
2024/03/22 13:35:24;;;;;;;3.43;3.10;;;17.40;89.30;;;;;;4991672;28;20229;-67
2024/03/22 13:37:50;;;;;;;4.80;3.20;;;17.20;89.30;;;;;;4966397;28;20425;-66
2024/03/22 13:40:16;;;;;;;7.43;3.27;;;17.10;90.30;;;;;;4975517;28;20200;-68
2024/03/22 13:42:41;;;;;;;7.40;4.67;;;17.00;89.60;;;;;;4974956;28;20706;-68
2024/03/22 13:45:08;;;;;;;9.40;4.27;;;17.00;90.60;;;;;;4969449;28;20185;-66
2024/03/22 13:47:33;;;;;;;8.27;4.57;;;16.90;90.50;;;;;;4981181;28;20442;-65
2024/03/22 13:49:59;;;;;;;1.50;1.40;;;16.80;89.90;;;;;;4986247;28;20425;-67
2024/03/22 13:52:25;;;;;;;3.53;3.27;;;16.90;89.60;;;;;;4988994;28;20288;-66
2024/03/22 13:54:51;;;;;;;16.40;5.00;;;17.20;89.30;;;;;;5001358;28;20641;-68
2024/03/22 13:57:16;;;;;;;5.47;2.97;;;17.60;88.70;;;;;;4975972;28;20452;-72
2024/03/22 13:59:42;;;;;;;6.60;2.30;;;17.60;87.80;;;;;;4974819;28;20186;-67
2024/03/22 14:02:08;;;;;;;3.97;2.53;;;17.30;87.40;;;;;;4973501;28;20212;-68
2024/03/22 14:04:34;;;;;;;10.53;3.50;;;17.00;87.80;;;;;;5003041;28;20272;-67
2024/03/22 14:07:04;;;;;;;4.17;2.83;;;16.90;88.50;;;;;;5003050;28;20192;-66
2024/03/22 14:09:33;;;;;;;6.13;3.20;;;16.80;89.00;;;;;;4999481;28;20450;-67
2024/03/22 14:11:59;;;;;;;5.87;4.13;;;16.70;89.70;;;;;;4977064;28;20450;-66
2024/03/22 14:14:25;;;;;;;3.73;3.07;;;16.60;89.40;;;;;;4958211;28;20949;-67
2024/03/22 14:16:51;;;;;;;9.43;6.00;;;16.60;89.80;;;;;;4971177;28;20418;-67
2024/03/22 14:19:19;;;;;;;14.83;4.30;;;16.70;90.30;;;;;;4982401;28;20553;-70
2024/03/22 14:21:47;;;;;;;7.10;3.40;;;16.70;90.60;;;;;;4970062;28;20476;-67
2024/03/22 14:24:13;;;;;;;8.97;3.70;;;17.00;90.90;;;;;;5006057;28;20416;-70
2024/03/22 14:26:42;;;;;;;11.83;4.10;;;17.00;89.80;;;;;;4982216;28;20420;-69
2024/03/22 14:29:14;;;;;;;8.10;4.00;;;17.00;90.50;;;;;;4974279;28;20434;-67
2024/03/22 14:31:39;;;;;;;7.07;3.40;;;16.90;90.20;;;;;;4975880;28;20453;-67
2024/03/22 14:34:09;;;;;;;4.50;4.20;;;17.00;91.10;;;;;;4987650;28;20475;-66
2024/03/22 14:36:34;;;;;;;5.93;3.00;;;16.70;90.80;;;;;;4975351;28;20592;-68
2024/03/22 14:39:01;;;;;;;8.97;5.07;;;16.50;91.40;;;;;;4990849;28;20425;-71
2024/03/22 14:41:27;;;;;;;11.87;4.80;;;16.30;91.60;;;;;;4982883;28;20216;-68
2024/03/22 14:43:52;;;;;;;3.77;2.50;;;16.30;92.40;;;;;;4970024;28;20421;-67
2024/03/22 14:46:20;;;;;;;6.57;3.13;;;16.20;92.80;;;;;;4973845;28;20191;-67
2024/03/22 14:48:45;;;;;;;3.90;3.43;;;16.20;93.00;;;;;;4988672;28;20596;-67
2024/03/22 14:51:11;;;;;;;8.83;4.33;;;16.10;93.40;;;;;;4985588;28;20524;-67
2024/03/22 14:53:37;;;;;;;18.40;3.57;;;16.10;93.60;;;;;;4991738;28;20276;-70
2024/03/22 14:56:04;;;;;;;2.37;1.90;;;16.00;93.70;;;;;;4977408;28;20656;-67
2024/03/22 14:58:30;;;;;;;4.10;3.30;;;16.00;94.00;;;;;;4978439;28;20935;-67
2024/03/22 15:00:57;;;;;;;5.33;4.07;;;16.00;94.20;;;;;;4990968;28;20438;-70
2024/03/22 15:03:23;;;;;;;3.73;2.30;;;15.90;92.80;;;;;;4990411;28;20468;-67
2024/03/22 15:05:53;;;;;;;3.40;3.03;;;15.80;95.30;;;;;;4996411;28;20430;-67
2024/03/22 15:08:19;;;;;;;26.83;5.33;;;15.80;97.10;;;;;;4978716;28;20482;-66
2024/03/22 15:10:45;;;;;;;3.60;3.03;;;15.70;97.00;;;;;;4971595;28;20445;-67
2024/03/22 15:13:13;;;;;;;6.47;3.77;;;15.70;97.10;;;;;;4990007;28;20535;-68
2024/03/22 15:15:38;;;;;;;4.97;3.13;;;15.70;97.30;;;;;;4969691;28;21009;-67
2024/03/22 15:18:07;;;;;;;9.97;4.43;;;15.70;97.30;;;;;;4995274;28;20452;-67
2024/03/22 15:20:33;;;;;;;6.77;2.87;;;15.70;97.30;;;;;;4972454;28;20225;-68
2024/03/22 15:22:59;;;;;;;8.17;4.03;;;15.50;97.30;;;;;;4991806;28;20553;-69
2024/03/22 15:25:25;;;;;;;7.43;3.83;;;15.50;97.30;;;;;;4996531;28;20516;-68
2024/03/22 15:27:52;;;;;;;9.53;4.67;;;15.40;97.30;;;;;;4971218;28;20215;-68
2024/03/22 15:30:17;;;;;;;4.20;3.50;;;15.40;97.30;;;;;;4992066;28;20787;-68
2024/03/22 15:32:44;;;;;;;7.03;3.90;;;15.30;97.30;;;;;;4969753;28;20949;-68
2024/03/22 15:35:10;;;;;;;8.83;3.47;;;15.30;97.30;;;;;;4989417;28;20273;-68
2024/03/22 15:37:37;;;;;;;6.70;3.63;;;15.30;97.30;;;;;;4989493;28;20429;-68
2024/03/22 15:40:04;;;;;;;3.43;2.70;;;15.20;97.30;;;;;;4976037;28;20184;-68
2024/03/22 15:42:29;;;;;;;8.50;6.03;;;15.20;97.30;;;;;;4984565;28;20595;-68
2024/03/22 15:44:55;;;;;;;7.20;4.30;;;15.10;97.30;;;;;;4987156;28;20887;-68
2024/03/22 15:47:21;;;;;;;12.33;7.40;;;15.00;97.30;;;;;;4962449;28;20178;-68
2024/03/22 15:49:46;;;;;;;18.87;4.80;;;14.90;97.30;;;;;;4977465;28;20850;-68
2024/03/22 15:52:12;;;;;;;6.83;3.37;;;14.80;97.30;;;;;;4955347;28;20217;-68
2024/03/22 15:54:37;;;;;;;8.73;4.93;;;14.80;97.30;;;;;;4977498;28;20200;-68
2024/03/22 15:57:03;;;;;;;8.13;5.27;;;14.80;97.30;;;;;;4971859;28;20179;-68
2024/03/22 15:59:29;;;;;;;16.93;4.50;;;14.70;97.30;;;;;;4954473;28;20186;-68
2024/03/22 16:01:54;;;;;;;17.20;5.07;;;14.70;97.30;;;;;;4956096;28;20207;-68
2024/03/22 16:04:21;;;;;;;5.70;4.40;;;14.70;97.30;;;;;;4968389;28;20183;-67
2024/03/22 16:06:47;;;;;;;6.87;4.20;;;14.70;97.30;;;;;;4959184;28;20178;-68
2024/03/22 16:09:13;;;;;;;5.00;3.13;;;14.70;97.30;;;;;;4978478;28;20408;-68
2024/03/22 16:11:39;;;;;;;4.60;3.83;;;14.60;97.30;;;;;;4958685;28;20533;-67
2024/03/22 16:14:05;;;;;;;5.93;5.20;;;14.60;97.30;;;;;;4959062;28;20925;-68
2024/03/22 16:16:30;;;;;;;5.73;2.97;;;14.60;97.30;;;;;;4963278;28;20439;-67
2024/03/22 16:18:56;;;;;;;13.10;7.47;;;14.50;97.30;;;;;;4961711;28;20178;-67
2024/03/22 16:21:22;;;;;;;9.80;5.00;;;14.50;97.30;;;;;;4970781;28;20682;-67
2024/03/22 16:23:47;;;;;;;4.40;3.87;;;14.40;97.30;;;;;;4977353;28;20746;-67
2024/03/22 16:26:13;;;;;;;4.90;4.40;;;14.40;97.30;;;;;;4960245;28;20182;-67
2024/03/22 16:28:39;;;;;;;5.23;3.80;;;14.40;97.30;;;;;;4959007;28;20179;-67
2024/03/22 16:31:05;;;;;;;3.87;3.70;;;14.30;97.30;;;;;;4958319;28;20208;-67
2024/03/22 16:33:32;;;;;;;11.70;4.67;;;14.20;97.30;;;;;;4957256;28;20189;-67
2024/03/22 16:35:57;;;;;;;12.50;3.47;;;14.20;97.30;;;;;;4971229;28;20226;-67
2024/03/22 16:38:23;;;;;;;6.20;4.50;;;14.10;97.30;;;;;;4959633;28;20437;-67
2024/03/22 16:40:48;;;;;;;7.50;4.27;;;14.10;97.30;;;;;;4972372;28;20220;-67
2024/03/22 16:43:14;;;;;;;8.60;6.10;;;14.00;97.30;;;;;;4958394;28;20299;-68
2024/03/22 16:45:39;;;;;;;9.30;5.33;;;14.00;97.30;;;;;;4972750;28;20547;-69
2024/03/22 16:48:06;;;;;;;5.23;3.80;;;13.90;97.30;;;;;;4969171;28;20175;-69
2024/03/22 16:50:31;;;;;;;6.70;4.77;;;13.90;97.30;;;;;;4959308;28;20205;-67
2024/03/22 16:52:57;;;;;;;13.60;7.10;;;13.80;97.30;;;;;;4969663;28;20510;-66
2024/03/22 16:55:25;;;;;;;3.70;2.93;;;13.80;97.30;;;;;;4976022;28;20276;-67
2024/03/22 16:57:52;;;;;;;7.47;4.37;;;13.80;97.30;;;;;;4986376;28;20183;-67
2024/03/22 17:00:18;;;;;;;8.43;4.30;;;13.70;97.30;;;;;;4994442;28;20841;-67
2024/03/22 17:02:45;;;;;;;7.07;3.50;;;13.70;97.30;;;;;;4983792;28;20984;-67
2024/03/22 17:05:10;;;;;;;5.40;3.30;;;13.60;97.30;;;;;;4994760;28;20897;-67
2024/03/22 17:07:36;;;;;;;6.90;4.80;;;13.50;97.30;;;;;;4993835;28;20423;-69
2024/03/22 17:10:01;;;;;;;7.10;6.70;;;13.50;97.30;;;;;;4992535;28;20182;-67
2024/03/22 17:12:30;;;;;;;6.80;5.30;;;13.40;97.30;;;;;;4974796;28;20692;-67
2024/03/22 17:14:55;;;;;;;6.53;5.00;;;13.40;97.30;;;;;;4996974;28;20200;-66
2024/03/22 17:17:22;;;;;;;7.40;4.00;;;13.30;97.30;;;;;;4999156;28;20812;-67
2024/03/22 17:19:48;;;;;;;5.97;4.40;;;13.30;97.30;;;;;;4977827;28;20194;-67
2024/03/22 17:22:14;;;;;;;4.93;4.23;;;13.20;97.30;;;;;;4977715;28;20471;-69
2024/03/22 17:24:42;;;;;;;9.40;4.83;;;13.20;97.30;;;;;;4996105;28;20214;-66
2024/03/22 17:27:08;;;;;;;36.17;5.43;;;13.20;97.30;;;;;;4997273;28;20427;-66
2024/03/22 17:29:34;;;;;;;16.67;6.77;;;13.10;97.30;;;;;;4998760;28;20512;-68
2024/03/22 17:31:59;;;;;;;6.40;4.50;;;13.10;97.30;;;;;;4998580;28;20568;-66
2024/03/22 17:34:25;;;;;;;12.40;4.37;;;13.00;97.30;;;;;;4985517;28;20646;-66
2024/03/22 17:36:50;;;;;;;8.37;3.47;;;13.00;97.30;;;;;;4988607;28;20293;-66
2024/03/22 17:39:16;;;;;;;9.43;5.07;;;12.90;97.30;;;;;;4972602;28;20186;-66
2024/03/22 17:41:41;;;;;;;5.70;3.93;;;12.90;97.30;;;;;;4998842;28;20271;-66